sensor_id;sensor_type;location;lat;lon;timestamp;temperature;humidity
36444;DHT22;24692;45.642;13.806;2023-09-19T00:01:33;24.70;99.90
36444;DHT22;24692;45.642;13.806;2023-09-19T00:03:59;24.70;99.90
36444;DHT22;24692;45.642;13.806;2023-09-19T00:06:29;24.80;99.90
36444;DHT22;24692;45.642;13.806;2023-09-19T00:08:57;24.90;99.90
36444;DHT22;24692;45.642;13.806;2023-09-19T00:11:25;24.80;99.90
36444;DHT22;24692;45.642;13.806;2023-09-19T00:13:52;24.70;99.90
36444;DHT22;24692;45.642;13.806;2023-09-19T00:16:18;24.60;99.90
36444;DHT22;24692;45.642;13.806;2023-09-19T00:18:44;24.70;99.90
36444;DHT22;24692;45.642;13.806;2023-09-19T00:21:10;24.90;99.90
36444;DHT22;24692;45.642;13.806;2023-09-19T00:23:36;25.00;99.90
36444;DHT22;24692;45.642;13.806;2023-09-19T00:26:02;25.00;99.90
36444;DHT22;24692;45.642;13.806;2023-09-19T00:28:29;25.00;99.90
36444;DHT22;24692;45.642;13.806;2023-09-19T00:30:55;25.00;99.90
36444;DHT22;24692;45.642;13.806;2023-09-19T00:33:21;24.90;99.90
36444;DHT22;24692;45.642;13.806;2023-09-19T00:35:51;24.80;99.90
36444;DHT22;24692;45.642;13.806;2023-09-19T00:38:17;24.70;99.90
36444;DHT22;24692;45.642;13.806;2023-09-19T00:40:47;24.70;99.90
36444;DHT22;24692;45.642;13.806;2023-09-19T00:43:13;24.60;99.90
36444;DHT22;24692;45.642;13.806;2023-09-19T00:45:41;24.50;99.90
36444;DHT22;24692;45.642;13.806;2023-09-19T00:48:08;24.60;99.90
36444;DHT22;24692;45.642;13.806;2023-09-19T00:50:35;24.70;99.90
36444;DHT22;24692;45.642;13.806;2023-09-19T00:53:02;24.90;99.90
36444;DHT22;24692;45.642;13.806;2023-09-19T00:55:34;25.00;99.90
36444;DHT22;24692;45.642;13.806;2023-09-19T00:58:00;25.00;99.90
36444;DHT22;24692;45.642;13.806;2023-09-19T01:00:26;24.80;99.90
36444;DHT22;24692;45.642;13.806;2023-09-19T01:02:52;24.70;99.90
36444;DHT22;24692;45.642;13.806;2023-09-19T01:05:18;24.50;99.90
36444;DHT22;24692;45.642;13.806;2023-09-19T01:07:44;24.40;99.90
36444;DHT22;24692;45.642;13.806;2023-09-19T01:10:14;24.30;99.90
36444;DHT22;24692;45.642;13.806;2023-09-19T01:16:08;24.10;99.90
36444;DHT22;24692;45.642;13.806;2023-09-19T01:18:55;23.90;99.90
36444;DHT22;24692;45.642;13.806;2023-09-19T01:29:47;24.10;99.90
36444;DHT22;24692;45.642;13.806;2023-09-19T01:32:21;24.00;99.90
36444;DHT22;24692;45.642;13.806;2023-09-19T01:34:57;23.90;99.90
36444;DHT22;24692;45.642;13.806;2023-09-19T01:37:29;24.00;99.90
36444;DHT22;24692;45.642;13.806;2023-09-19T01:40:00;24.10;99.90
36444;DHT22;24692;45.642;13.806;2023-09-19T01:42:42;24.10;99.90
36444;DHT22;24692;45.642;13.806;2023-09-19T01:45:19;24.30;99.90
36444;DHT22;24692;45.642;13.806;2023-09-19T01:47:54;24.30;99.90
36444;DHT22;24692;45.642;13.806;2023-09-19T01:50:30;24.40;99.90
36444;DHT22;24692;45.642;13.806;2023-09-19T01:53:05;24.20;99.90
36444;DHT22;24692;45.642;13.806;2023-09-19T01:55:45;24.20;99.90
36444;DHT22;24692;45.642;13.806;2023-09-19T02:00:41;24.30;99.90
36444;DHT22;24692;45.642;13.806;2023-09-19T02:03:09;24.30;99.90
36444;DHT22;24692;45.642;13.806;2023-09-19T02:05:35;24.30;99.90
36444;DHT22;24692;45.642;13.806;2023-09-19T02:08:01;24.40;99.90
36444;DHT22;24692;45.642;13.806;2023-09-19T02:10:26;24.40;99.90
36444;DHT22;24692;45.642;13.806;2023-09-19T02:12:52;24.40;99.90
36444;DHT22;24692;45.642;13.806;2023-09-19T02:15:18;24.40;99.90
36444;DHT22;24692;45.642;13.806;2023-09-19T02:17:44;24.40;99.90
36444;DHT22;24692;45.642;13.806;2023-09-19T02:20:11;24.50;99.90
36444;DHT22;24692;45.642;13.806;2023-09-19T02:22:41;24.50;99.90
36444;DHT22;24692;45.642;13.806;2023-09-19T02:25:07;24.50;99.90
36444;DHT22;24692;45.642;13.806;2023-09-19T02:27:34;24.50;99.90
36444;DHT22;24692;45.642;13.806;2023-09-19T02:30:00;24.40;99.90
36444;DHT22;24692;45.642;13.806;2023-09-19T02:32:30;24.30;99.90
36444;DHT22;24692;45.642;13.806;2023-09-19T02:34:57;24.30;99.90
36444;DHT22;24692;45.642;13.806;2023-09-19T02:37:26;24.20;99.90
36444;DHT22;24692;45.642;13.806;2023-09-19T02:39:51;24.30;99.90
36444;DHT22;24692;45.642;13.806;2023-09-19T02:42:17;24.40;99.90
36444;DHT22;24692;45.642;13.806;2023-09-19T02:44:43;24.40;99.90
36444;DHT22;24692;45.642;13.806;2023-09-19T02:47:08;24.30;99.90
36444;DHT22;24692;45.642;13.806;2023-09-19T02:49:34;24.30;99.90
36444;DHT22;24692;45.642;13.806;2023-09-19T02:52:00;24.40;99.90
36444;DHT22;24692;45.642;13.806;2023-09-19T02:54:26;24.50;99.90
36444;DHT22;24692;45.642;13.806;2023-09-19T02:56:52;24.60;99.90
36444;DHT22;24692;45.642;13.806;2023-09-19T02:59:19;24.50;99.90
36444;DHT22;24692;45.642;13.806;2023-09-19T03:01:45;24.50;99.90
36444;DHT22;24692;45.642;13.806;2023-09-19T03:04:13;24.40;99.90
36444;DHT22;24692;45.642;13.806;2023-09-19T03:06:45;24.40;99.90
36444;DHT22;24692;45.642;13.806;2023-09-19T03:09:11;24.40;99.90
36444;DHT22;24692;45.642;13.806;2023-09-19T03:11:39;24.40;99.90
36444;DHT22;24692;45.642;13.806;2023-09-19T03:14:06;24.30;99.90
36444;DHT22;24692;45.642;13.806;2023-09-19T03:16:31;24.30;99.90
36444;DHT22;24692;45.642;13.806;2023-09-19T03:18:59;24.40;99.90
36444;DHT22;24692;45.642;13.806;2023-09-19T03:21:25;24.40;99.90
36444;DHT22;24692;45.642;13.806;2023-09-19T03:23:51;24.50;99.90
36444;DHT22;24692;45.642;13.806;2023-09-19T03:26:16;24.50;99.90
36444;DHT22;24692;45.642;13.806;2023-09-19T03:28:42;24.60;99.90
36444;DHT22;24692;45.642;13.806;2023-09-19T03:31:09;24.60;99.90
36444;DHT22;24692;45.642;13.806;2023-09-19T03:33:34;24.60;99.90
36444;DHT22;24692;45.642;13.806;2023-09-19T03:36:01;24.60;99.90
36444;DHT22;24692;45.642;13.806;2023-09-19T03:38:30;24.40;99.90
36444;DHT22;24692;45.642;13.806;2023-09-19T03:40:57;24.40;99.90
36444;DHT22;24692;45.642;13.806;2023-09-19T03:43:22;24.40;99.90
36444;DHT22;24692;45.642;13.806;2023-09-19T03:45:48;24.30;99.90
36444;DHT22;24692;45.642;13.806;2023-09-19T03:48:14;24.30;99.90
36444;DHT22;24692;45.642;13.806;2023-09-19T03:50:40;24.20;99.90
36444;DHT22;24692;45.642;13.806;2023-09-19T03:53:06;24.00;99.90
36444;DHT22;24692;45.642;13.806;2023-09-19T03:55:34;23.90;99.90
36444;DHT22;24692;45.642;13.806;2023-09-19T03:58:04;23.90;99.90
36444;DHT22;24692;45.642;13.806;2023-09-19T04:00:30;23.80;99.90
36444;DHT22;24692;45.642;13.806;2023-09-19T04:02:56;23.70;99.90
36444;DHT22;24692;45.642;13.806;2023-09-19T04:05:23;23.60;99.90
36444;DHT22;24692;45.642;13.806;2023-09-19T04:07:49;23.50;99.90
36444;DHT22;24692;45.642;13.806;2023-09-19T04:10:15;23.50;99.90
36444;DHT22;24692;45.642;13.806;2023-09-19T04:12:53;23.50;99.90
36444;DHT22;24692;45.642;13.806;2023-09-19T04:15:19;23.50;99.90
36444;DHT22;24692;45.642;13.806;2023-09-19T04:17:45;23.50;99.90
36444;DHT22;24692;45.642;13.806;2023-09-19T04:20:11;23.50;99.90
36444;DHT22;24692;45.642;13.806;2023-09-19T04:22:38;23.50;99.90
36444;DHT22;24692;45.642;13.806;2023-09-19T04:25:05;23.60;99.90
36444;DHT22;24692;45.642;13.806;2023-09-19T04:27:32;23.60;99.90
36444;DHT22;24692;45.642;13.806;2023-09-19T04:29:58;23.70;99.90
36444;DHT22;24692;45.642;13.806;2023-09-19T04:32:28;23.70;99.90
36444;DHT22;24692;45.642;13.806;2023-09-19T04:34:53;23.80;99.90
36444;DHT22;24692;45.642;13.806;2023-09-19T04:37:19;23.80;99.90
36444;DHT22;24692;45.642;13.806;2023-09-19T04:39:45;23.80;99.90
36444;DHT22;24692;45.642;13.806;2023-09-19T04:42:13;23.80;99.90
36444;DHT22;24692;45.642;13.806;2023-09-19T04:44:39;23.70;99.90
36444;DHT22;24692;45.642;13.806;2023-09-19T04:47:05;23.60;99.90
36444;DHT22;24692;45.642;13.806;2023-09-19T04:49:31;23.60;99.90
36444;DHT22;24692;45.642;13.806;2023-09-19T04:51:57;23.40;99.90
36444;DHT22;24692;45.642;13.806;2023-09-19T04:54:22;23.30;99.90
36444;DHT22;24692;45.642;13.806;2023-09-19T04:56:48;23.40;99.90
36444;DHT22;24692;45.642;13.806;2023-09-19T04:59:14;23.50;99.90
36444;DHT22;24692;45.642;13.806;2023-09-19T05:01:41;23.50;99.90
36444;DHT22;24692;45.642;13.806;2023-09-19T05:04:06;23.50;99.90
36444;DHT22;24692;45.642;13.806;2023-09-19T05:06:32;23.50;99.90
36444;DHT22;24692;45.642;13.806;2023-09-19T05:08:59;23.60;99.90
36444;DHT22;24692;45.642;13.806;2023-09-19T05:11:25;23.70;99.90
36444;DHT22;24692;45.642;13.806;2023-09-19T05:13:51;23.80;99.90
36444;DHT22;24692;45.642;13.806;2023-09-19T05:16:18;23.90;99.90
36444;DHT22;24692;45.642;13.806;2023-09-19T05:18:44;24.00;99.90
36444;DHT22;24692;45.642;13.806;2023-09-19T05:21:10;24.00;99.90
36444;DHT22;24692;45.642;13.806;2023-09-19T05:23:36;23.90;99.90
36444;DHT22;24692;45.642;13.806;2023-09-19T05:26:02;24.00;99.90
36444;DHT22;24692;45.642;13.806;2023-09-19T05:28:30;24.10;99.90
36444;DHT22;24692;45.642;13.806;2023-09-19T05:30:55;24.10;99.90
36444;DHT22;24692;45.642;13.806;2023-09-19T05:33:21;24.20;99.90
36444;DHT22;24692;45.642;13.806;2023-09-19T05:35:49;24.20;99.90
36444;DHT22;24692;45.642;13.806;2023-09-19T05:38:15;24.10;99.90
36444;DHT22;24692;45.642;13.806;2023-09-19T05:40:45;24.10;99.90
36444;DHT22;24692;45.642;13.806;2023-09-19T05:43:11;24.00;99.90
36444;DHT22;24692;45.642;13.806;2023-09-19T05:45:39;24.10;99.90
36444;DHT22;24692;45.642;13.806;2023-09-19T05:48:13;24.00;99.90
36444;DHT22;24692;45.642;13.806;2023-09-19T05:50:39;24.00;99.90
36444;DHT22;24692;45.642;13.806;2023-09-19T05:53:05;24.10;99.90
36444;DHT22;24692;45.642;13.806;2023-09-19T05:55:32;24.20;99.90
36444;DHT22;24692;45.642;13.806;2023-09-19T05:57:57;24.20;99.90
36444;DHT22;24692;45.642;13.806;2023-09-19T06:00:24;24.20;99.90
36444;DHT22;24692;45.642;13.806;2023-09-19T06:02:54;24.30;99.90
36444;DHT22;24692;45.642;13.806;2023-09-19T06:05:21;24.40;99.90
36444;DHT22;24692;45.642;13.806;2023-09-19T06:07:48;24.40;99.90
36444;DHT22;24692;45.642;13.806;2023-09-19T06:10:13;24.40;99.90
36444;DHT22;24692;45.642;13.806;2023-09-19T06:12:41;24.40;99.90
36444;DHT22;24692;45.642;13.806;2023-09-19T06:15:09;24.40;99.90
36444;DHT22;24692;45.642;13.806;2023-09-19T06:17:38;24.40;99.90
36444;DHT22;24692;45.642;13.806;2023-09-19T06:20:07;24.40;99.90
36444;DHT22;24692;45.642;13.806;2023-09-19T06:22:40;24.40;99.90
36444;DHT22;24692;45.642;13.806;2023-09-19T06:25:07;24.50;99.90
36444;DHT22;24692;45.642;13.806;2023-09-19T06:27:33;24.60;99.90
36444;DHT22;24692;45.642;13.806;2023-09-19T06:30:01;24.80;99.90
36444;DHT22;24692;45.642;13.806;2023-09-19T06:32:28;25.00;99.90
36444;DHT22;24692;45.642;13.806;2023-09-19T06:34:54;25.10;99.90
36444;DHT22;24692;45.642;13.806;2023-09-19T06:37:21;25.10;99.90
36444;DHT22;24692;45.642;13.806;2023-09-19T06:39:47;25.10;99.90
36444;DHT22;24692;45.642;13.806;2023-09-19T06:42:15;25.10;99.90
36444;DHT22;24692;45.642;13.806;2023-09-19T06:44:43;25.10;99.90
36444;DHT22;24692;45.642;13.806;2023-09-19T06:47:09;25.20;99.90
36444;DHT22;24692;45.642;13.806;2023-09-19T06:49:35;25.30;99.90
36444;DHT22;24692;45.642;13.806;2023-09-19T06:52:01;25.40;99.90
36444;DHT22;24692;45.642;13.806;2023-09-19T06:54:28;25.50;99.90
36444;DHT22;24692;45.642;13.806;2023-09-19T06:56:57;25.40;99.90
36444;DHT22;24692;45.642;13.806;2023-09-19T06:59:25;25.50;99.90
36444;DHT22;24692;45.642;13.806;2023-09-19T07:01:51;25.80;99.90
36444;DHT22;24692;45.642;13.806;2023-09-19T07:04:17;26.50;99.90
36444;DHT22;24692;45.642;13.806;2023-09-19T07:06:50;27.40;99.90
36444;DHT22;24692;45.642;13.806;2023-09-19T07:09:17;28.40;99.90
36444;DHT22;24692;45.642;13.806;2023-09-19T07:11:45;29.30;99.90
36444;DHT22;24692;45.642;13.806;2023-09-19T07:14:11;30.50;99.90
36444;DHT22;24692;45.642;13.806;2023-09-19T07:16:37;30.40;99.90
36444;DHT22;24692;45.642;13.806;2023-09-19T07:19:05;30.20;99.90
36444;DHT22;24692;45.642;13.806;2023-09-19T07:21:30;30.80;99.90
36444;DHT22;24692;45.642;13.806;2023-09-19T07:23:59;30.90;99.90
36444;DHT22;24692;45.642;13.806;2023-09-19T07:26:26;31.40;99.90
36444;DHT22;24692;45.642;13.806;2023-09-19T07:28:53;32.00;99.90
36444;DHT22;24692;45.642;13.806;2023-09-19T07:31:20;32.00;99.90
36444;DHT22;24692;45.642;13.806;2023-09-19T07:33:45;32.10;99.90
36444;DHT22;24692;45.642;13.806;2023-09-19T07:36:11;32.40;99.90
36444;DHT22;24692;45.642;13.806;2023-09-19T07:38:39;32.80;99.90
36444;DHT22;24692;45.642;13.806;2023-09-19T07:41:06;33.80;99.90
36444;DHT22;24692;45.642;13.806;2023-09-19T07:43:32;34.20;99.90
36444;DHT22;24692;45.642;13.806;2023-09-19T07:46:03;33.70;99.90
36444;DHT22;24692;45.642;13.806;2023-09-19T07:48:29;33.60;99.90
36444;DHT22;24692;45.642;13.806;2023-09-19T07:50:55;33.50;99.90
36444;DHT22;24692;45.642;13.806;2023-09-19T07:53:20;32.20;99.90
36444;DHT22;24692;45.642;13.806;2023-09-19T07:55:47;30.60;99.90
36444;DHT22;24692;45.642;13.806;2023-09-19T07:58:14;29.90;99.90
36444;DHT22;24692;45.642;13.806;2023-09-19T08:00:41;29.40;99.90
36444;DHT22;24692;45.642;13.806;2023-09-19T08:03:07;29.20;99.90
36444;DHT22;24692;45.642;13.806;2023-09-19T08:05:34;29.30;99.90
36444;DHT22;24692;45.642;13.806;2023-09-19T08:08:00;29.70;99.90
36444;DHT22;24692;45.642;13.806;2023-09-19T08:10:28;30.00;99.90
36444;DHT22;24692;45.642;13.806;2023-09-19T08:13:00;29.80;99.90
36444;DHT22;24692;45.642;13.806;2023-09-19T08:15:27;30.10;99.90
36444;DHT22;24692;45.642;13.806;2023-09-19T08:17:53;30.40;99.90
36444;DHT22;24692;45.642;13.806;2023-09-19T08:20:19;30.00;99.90
36444;DHT22;24692;45.642;13.806;2023-09-19T08:22:52;29.40;99.90
36444;DHT22;24692;45.642;13.806;2023-09-19T08:25:21;29.20;99.90
36444;DHT22;24692;45.642;13.806;2023-09-19T08:27:49;28.90;99.90
36444;DHT22;24692;45.642;13.806;2023-09-19T08:30:19;28.70;99.90
36444;DHT22;24692;45.642;13.806;2023-09-19T08:32:50;29.10;99.90
36444;DHT22;24692;45.642;13.806;2023-09-19T08:35:15;30.10;99.90
36444;DHT22;24692;45.642;13.806;2023-09-19T08:37:42;31.50;99.90
36444;DHT22;24692;45.642;13.806;2023-09-19T08:40:11;31.80;99.90
36444;DHT22;24692;45.642;13.806;2023-09-19T08:42:51;32.00;99.90
36444;DHT22;24692;45.642;13.806;2023-09-19T08:45:22;32.90;99.90
36444;DHT22;24692;45.642;13.806;2023-09-19T08:51:08;32.90;99.90
36444;DHT22;24692;45.642;13.806;2023-09-19T08:53:52;33.40;99.90
36444;DHT22;24692;45.642;13.806;2023-09-19T08:56:19;32.70;99.90
36444;DHT22;24692;45.642;13.806;2023-09-19T08:58:51;33.00;99.90
36444;DHT22;24692;45.642;13.806;2023-09-19T09:01:20;32.30;99.90
36444;DHT22;24692;45.642;13.806;2023-09-19T09:03:56;31.30;99.90
36444;DHT22;24692;45.642;13.806;2023-09-19T09:06:24;29.80;99.90
36444;DHT22;24692;45.642;13.806;2023-09-19T09:08:51;29.30;99.90
36444;DHT22;24692;45.642;13.806;2023-09-19T09:11:18;28.70;99.90
36444;DHT22;24692;45.642;13.806;2023-09-19T09:13:44;28.20;99.90
36444;DHT22;24692;45.642;13.806;2023-09-19T09:16:12;28.10;99.90
36444;DHT22;24692;45.642;13.806;2023-09-19T09:18:39;27.90;99.90
36444;DHT22;24692;45.642;13.806;2023-09-19T09:21:05;27.90;99.90
36444;DHT22;24692;45.642;13.806;2023-09-19T09:23:31;27.80;99.90
36444;DHT22;24692;45.642;13.806;2023-09-19T09:25:58;29.20;99.90
36444;DHT22;24692;45.642;13.806;2023-09-19T09:28:29;29.70;99.90
36444;DHT22;24692;45.642;13.806;2023-09-19T09:30:57;29.30;99.90
36444;DHT22;24692;45.642;13.806;2023-09-19T09:33:23;29.90;99.90
36444;DHT22;24692;45.642;13.806;2023-09-19T09:35:55;30.70;99.90
36444;DHT22;24692;45.642;13.806;2023-09-19T09:38:44;31.70;99.90
36444;DHT22;24692;45.642;13.806;2023-09-19T09:41:11;32.40;99.90
36444;DHT22;24692;45.642;13.806;2023-09-19T09:43:41;32.90;99.90
36444;DHT22;24692;45.642;13.806;2023-09-19T09:46:16;32.40;99.90
36444;DHT22;24692;45.642;13.806;2023-09-19T09:51:33;30.50;99.90
36444;DHT22;24692;45.642;13.806;2023-09-19T09:54:15;29.60;99.90
36444;DHT22;24692;45.642;13.806;2023-09-19T10:02:12;26.90;99.90
36444;DHT22;24692;45.642;13.806;2023-09-19T10:04:39;26.30;99.90
36444;DHT22;24692;45.642;13.806;2023-09-19T10:07:30;26.00;99.90
36444;DHT22;24692;45.642;13.806;2023-09-19T10:10:35;25.80;99.90
36444;DHT22;24692;45.642;13.806;2023-09-19T10:13:07;25.70;99.90
36444;DHT22;24692;45.642;13.806;2023-09-19T10:15:38;25.30;99.90
36444;DHT22;24692;45.642;13.806;2023-09-19T10:18:07;24.80;99.90
36444;DHT22;24692;45.642;13.806;2023-09-19T10:20:37;24.50;99.90
36444;DHT22;24692;45.642;13.806;2023-09-19T10:23:07;24.20;99.90
36444;DHT22;24692;45.642;13.806;2023-09-19T10:25:46;24.10;99.90
36444;DHT22;24692;45.642;13.806;2023-09-19T10:28:14;23.90;99.90
36444;DHT22;24692;45.642;13.806;2023-09-19T10:30:44;23.90;99.90
36444;DHT22;24692;45.642;13.806;2023-09-19T10:33:14;24.00;99.90
36444;DHT22;24692;45.642;13.806;2023-09-19T10:35:50;24.20;99.90
36444;DHT22;24692;45.642;13.806;2023-09-19T10:38:24;24.20;99.90
36444;DHT22;24692;45.642;13.806;2023-09-19T10:40:56;24.40;99.90
36444;DHT22;24692;45.642;13.806;2023-09-19T10:43:33;25.70;99.90
36444;DHT22;24692;45.642;13.806;2023-09-19T10:46:01;26.60;99.90
36444;DHT22;24692;45.642;13.806;2023-09-19T10:48:31;27.10;99.90
36444;DHT22;24692;45.642;13.806;2023-09-19T10:51:10;27.80;99.90
36444;DHT22;24692;45.642;13.806;2023-09-19T10:53:59;28.40;99.90
36444;DHT22;24692;45.642;13.806;2023-09-19T10:56:35;30.20;99.90
36444;DHT22;24692;45.642;13.806;2023-09-19T10:59:14;32.10;99.90
36444;DHT22;24692;45.642;13.806;2023-09-19T11:01:54;33.30;99.90
36444;DHT22;24692;45.642;13.806;2023-09-19T11:04:27;33.40;99.90
36444;DHT22;24692;45.642;13.806;2023-09-19T11:07:08;33.40;99.90
36444;DHT22;24692;45.642;13.806;2023-09-19T11:12:24;33.40;99.90
36444;DHT22;24692;45.642;13.806;2023-09-19T11:15:01;34.00;99.90
36444;DHT22;24692;45.642;13.806;2023-09-19T11:17:34;33.70;99.90
36444;DHT22;24692;45.642;13.806;2023-09-19T11:30:49;33.10;99.90
36444;DHT22;24692;45.642;13.806;2023-09-19T11:36:07;33.90;99.90
36444;DHT22;24692;45.642;13.806;2023-09-19T11:46:33;34.40;99.90
36444;DHT22;24692;45.642;13.806;2023-09-19T11:49:06;34.30;99.90
36444;DHT22;24692;45.642;13.806;2023-09-19T11:51:45;34.70;99.90
36444;DHT22;24692;45.642;13.806;2023-09-19T11:54:13;34.80;99.90
36444;DHT22;24692;45.642;13.806;2023-09-19T11:56:51;35.30;99.90
36444;DHT22;24692;45.642;13.806;2023-09-19T11:59:23;35.80;99.90
36444;DHT22;24692;45.642;13.806;2023-09-19T12:01:54;36.00;99.90
36444;DHT22;24692;45.642;13.806;2023-09-19T12:04:43;35.70;99.90
36444;DHT22;24692;45.642;13.806;2023-09-19T12:07:12;34.90;99.90
36444;DHT22;24692;45.642;13.806;2023-09-19T12:10:04;35.20;99.90
36444;DHT22;24692;45.642;13.806;2023-09-19T12:12:31;34.50;99.90
36444;DHT22;24692;45.642;13.806;2023-09-19T12:14:58;35.10;99.90
36444;DHT22;24692;45.642;13.806;2023-09-19T12:17:46;35.50;99.90
36444;DHT22;24692;45.642;13.806;2023-09-19T12:20:13;36.20;99.90
36444;DHT22;24692;45.642;13.806;2023-09-19T12:22:44;36.00;99.90
36444;DHT22;24692;45.642;13.806;2023-09-19T12:25:10;36.20;99.90
36444;DHT22;24692;45.642;13.806;2023-09-19T12:27:47;36.40;99.90
36444;DHT22;24692;45.642;13.806;2023-09-19T12:30:16;36.50;99.90
36444;DHT22;24692;45.642;13.806;2023-09-19T12:32:45;36.50;99.90
36444;DHT22;24692;45.642;13.806;2023-09-19T12:35:27;36.90;99.90
36444;DHT22;24692;45.642;13.806;2023-09-19T12:37:54;36.70;99.90
36444;DHT22;24692;45.642;13.806;2023-09-19T12:40:21;36.50;99.90
36444;DHT22;24692;45.642;13.806;2023-09-19T12:42:49;35.70;99.90
36444;DHT22;24692;45.642;13.806;2023-09-19T12:45:15;35.20;99.90
36444;DHT22;24692;45.642;13.806;2023-09-19T12:51:05;35.10;99.90
36444;DHT22;24692;45.642;13.806;2023-09-19T12:53:34;35.80;99.90
36444;DHT22;24692;45.642;13.806;2023-09-19T12:56:03;36.00;99.90
36444;DHT22;24692;45.642;13.806;2023-09-19T12:58:34;35.80;99.90
36444;DHT22;24692;45.642;13.806;2023-09-19T13:01:14;35.70;99.90
36444;DHT22;24692;45.642;13.806;2023-09-19T13:03:40;36.30;99.90
36444;DHT22;24692;45.642;13.806;2023-09-19T13:06:06;36.40;99.90
36444;DHT22;24692;45.642;13.806;2023-09-19T13:08:33;36.40;99.90
36444;DHT22;24692;45.642;13.806;2023-09-19T13:11:12;36.50;99.90
36444;DHT22;24692;45.642;13.806;2023-09-19T13:13:42;35.70;99.90
36444;DHT22;24692;45.642;13.806;2023-09-19T13:16:10;34.80;99.90
36444;DHT22;24692;45.642;13.806;2023-09-19T13:18:48;33.80;99.90
36444;DHT22;24692;45.642;13.806;2023-09-19T13:21:17;33.70;99.90
36444;DHT22;24692;45.642;13.806;2023-09-19T13:23:53;34.20;99.90
36444;DHT22;24692;45.642;13.806;2023-09-19T13:26:27;35.00;99.90
36444;DHT22;24692;45.642;13.806;2023-09-19T13:28:54;34.90;99.90
36444;DHT22;24692;45.642;13.806;2023-09-19T13:31:20;35.40;99.90
36444;DHT22;24692;45.642;13.806;2023-09-19T13:33:48;35.30;99.90
36444;DHT22;24692;45.642;13.806;2023-09-19T13:36:14;35.40;99.90
36444;DHT22;24692;45.642;13.806;2023-09-19T13:38:42;35.50;99.90
36444;DHT22;24692;45.642;13.806;2023-09-19T13:41:11;35.00;99.90
36444;DHT22;24692;45.642;13.806;2023-09-19T13:43:37;34.50;99.90
36444;DHT22;24692;45.642;13.806;2023-09-19T13:46:04;34.80;99.90
36444;DHT22;24692;45.642;13.806;2023-09-19T13:48:30;35.10;99.90
36444;DHT22;24692;45.642;13.806;2023-09-19T13:50:56;35.10;99.90
36444;DHT22;24692;45.642;13.806;2023-09-19T13:53:22;36.20;99.90
36444;DHT22;24692;45.642;13.806;2023-09-19T13:55:49;35.90;99.90
36444;DHT22;24692;45.642;13.806;2023-09-19T13:58:14;35.80;99.90
36444;DHT22;24692;45.642;13.806;2023-09-19T14:00:40;35.80;99.90
36444;DHT22;24692;45.642;13.806;2023-09-19T14:03:06;35.90;99.90
36444;DHT22;24692;45.642;13.806;2023-09-19T14:05:32;35.20;99.90
36444;DHT22;24692;45.642;13.806;2023-09-19T14:07:58;35.60;99.90
36444;DHT22;24692;45.642;13.806;2023-09-19T14:10:25;35.60;99.90
36444;DHT22;24692;45.642;13.806;2023-09-19T14:12:53;35.50;99.90
36444;DHT22;24692;45.642;13.806;2023-09-19T14:15:18;34.10;99.90
36444;DHT22;24692;45.642;13.806;2023-09-19T14:17:44;33.80;99.90
36444;DHT22;24692;45.642;13.806;2023-09-19T14:20:13;33.70;99.90
36444;DHT22;24692;45.642;13.806;2023-09-19T14:22:39;33.40;99.90
36444;DHT22;24692;45.642;13.806;2023-09-19T14:25:05;33.80;99.90
36444;DHT22;24692;45.642;13.806;2023-09-19T14:27:31;33.30;99.90
36444;DHT22;24692;45.642;13.806;2023-09-19T14:29:57;32.90;99.90
36444;DHT22;24692;45.642;13.806;2023-09-19T14:32:23;32.90;99.90
36444;DHT22;24692;45.642;13.806;2023-09-19T14:34:49;33.30;99.90
36444;DHT22;24692;45.642;13.806;2023-09-19T14:37:15;33.50;99.90
36444;DHT22;24692;45.642;13.806;2023-09-19T14:39:42;33.70;99.90
36444;DHT22;24692;45.642;13.806;2023-09-19T14:42:11;33.10;99.90
36444;DHT22;24692;45.642;13.806;2023-09-19T14:44:36;33.00;99.90
36444;DHT22;24692;45.642;13.806;2023-09-19T14:47:05;33.80;99.90
36444;DHT22;24692;45.642;13.806;2023-09-19T14:49:35;34.20;99.90
36444;DHT22;24692;45.642;13.806;2023-09-19T14:52:06;34.20;99.90
36444;DHT22;24692;45.642;13.806;2023-09-19T14:54:32;34.50;99.90
36444;DHT22;24692;45.642;13.806;2023-09-19T14:56:59;33.80;99.90
36444;DHT22;24692;45.642;13.806;2023-09-19T14:59:34;33.30;99.90
36444;DHT22;24692;45.642;13.806;2023-09-19T15:02:05;33.50;99.90
36444;DHT22;24692;45.642;13.806;2023-09-19T15:04:32;34.20;99.90
36444;DHT22;24692;45.642;13.806;2023-09-19T15:06:59;34.30;99.90
36444;DHT22;24692;45.642;13.806;2023-09-19T15:09:25;34.80;99.90
36444;DHT22;24692;45.642;13.806;2023-09-19T15:11:54;35.20;99.90
36444;DHT22;24692;45.642;13.806;2023-09-19T15:14:21;35.20;99.90
36444;DHT22;24692;45.642;13.806;2023-09-19T15:16:48;35.40;99.90
36444;DHT22;24692;45.642;13.806;2023-09-19T15:19:14;35.30;99.90
36444;DHT22;24692;45.642;13.806;2023-09-19T15:21:40;34.60;99.90
36444;DHT22;24692;45.642;13.806;2023-09-19T15:24:06;33.70;99.90
36444;DHT22;24692;45.642;13.806;2023-09-19T15:26:36;33.40;99.90
36444;DHT22;24692;45.642;13.806;2023-09-19T15:29:08;33.50;99.90
36444;DHT22;24692;45.642;13.806;2023-09-19T15:31:37;33.10;99.90
36444;DHT22;24692;45.642;13.806;2023-09-19T15:34:04;33.00;99.90
36444;DHT22;24692;45.642;13.806;2023-09-19T15:36:31;33.10;99.90
36444;DHT22;24692;45.642;13.806;2023-09-19T15:39:04;33.10;99.90
36444;DHT22;24692;45.642;13.806;2023-09-19T15:41:40;33.20;99.90
36444;DHT22;24692;45.642;13.806;2023-09-19T15:44:14;33.10;99.90
36444;DHT22;24692;45.642;13.806;2023-09-19T15:46:41;32.90;99.90
36444;DHT22;24692;45.642;13.806;2023-09-19T15:49:06;32.60;99.90
36444;DHT22;24692;45.642;13.806;2023-09-19T15:51:33;32.60;99.90
36444;DHT22;24692;45.642;13.806;2023-09-19T15:53:59;32.70;99.90
36444;DHT22;24692;45.642;13.806;2023-09-19T15:56:28;32.70;99.90
36444;DHT22;24692;45.642;13.806;2023-09-19T15:58:55;32.60;99.90
36444;DHT22;24692;45.642;13.806;2023-09-19T16:01:21;31.80;99.90
36444;DHT22;24692;45.642;13.806;2023-09-19T16:03:52;31.10;99.90
36444;DHT22;24692;45.642;13.806;2023-09-19T16:06:29;31.30;99.90
36444;DHT22;24692;45.642;13.806;2023-09-19T16:08:58;31.20;99.90
36444;DHT22;24692;45.642;13.806;2023-09-19T16:11:25;31.20;99.90
36444;DHT22;24692;45.642;13.806;2023-09-19T16:13:52;30.90;99.90
36444;DHT22;24692;45.642;13.806;2023-09-19T16:16:19;30.60;99.90
36444;DHT22;24692;45.642;13.806;2023-09-19T16:18:55;30.30;99.90